createdAt,value
2019-05-02T00:00:21.252Z,59.65
2019-05-02T00:02:31.273Z,60.49
2019-05-02T00:04:38.842Z,59.86
2019-05-02T00:07:03.685Z,60.51
2019-05-02T00:09:11.615Z,58.43
2019-05-02T00:11:19.710Z,61.07
2019-05-02T00:13:27.042Z,61.61
2019-05-02T00:15:38.286Z,60.56
2019-05-02T00:17:43.620Z,59.87
2019-05-02T00:19:51.291Z,59.61
2019-05-02T00:21:58.789Z,60.12
2019-05-02T00:24:08.838Z,60.71
2019-05-02T00:26:16.158Z,60.67
2019-05-02T00:28:23.470Z,61.75
2019-05-02T00:30:34.705Z,60.59
2019-05-02T00:32:39.703Z,60.81
2019-05-02T00:34:46.951Z,61.70
2019-05-02T00:36:54.169Z,60.87
2019-05-02T00:39:01.457Z,62.35
2019-05-02T00:41:08.787Z,62.29
2019-05-02T00:43:16.237Z,61.39
2019-05-02T00:45:24.410Z,62.31
2019-05-02T00:47:42.209Z,61.64
2019-05-02T00:49:50.776Z,62.84
2019-05-02T00:52:01.469Z,62.43
2019-05-02T00:54:07.055Z,63.83
2019-05-02T00:56:14.233Z,64.00
2019-05-02T00:58:21.437Z,61.66
2019-05-02T01:00:30.281Z,63.20
2019-05-02T01:02:49.174Z,64.45
2019-05-02T01:04:59.296Z,63.18
2019-05-02T01:07:07.662Z,63.07
2019-05-02T01:09:14.969Z,64.12
2019-05-02T01:11:22.176Z,63.54
2019-05-02T01:13:29.452Z,63.75
2019-05-02T01:15:39.100Z,64.10
2019-05-02T01:17:45.677Z,64.36
2019-05-02T01:19:52.899Z,62.13
2019-05-02T01:22:00.210Z,62.91
2019-05-02T01:24:07.493Z,62.96
2019-05-02T01:26:14.782Z,63.86
2019-05-02T01:28:49.207Z,63.34
2019-05-02T01:31:23.217Z,64.65
2019-05-02T01:33:41.826Z,63.78
2019-05-02T01:36:06.236Z,62.75
2019-05-02T01:38:26.314Z,64.32
2019-05-02T01:40:34.010Z,62.42
2019-05-02T01:42:44.496Z,62.81
2019-05-02T01:44:50.187Z,62.33
2019-05-02T01:46:58.810Z,63.25
2019-05-02T01:49:07.588Z,64.54
2019-05-02T01:51:14.899Z,63.26
2019-05-02T01:53:22.171Z,62.20
2019-05-02T01:55:29.560Z,61.84
2019-05-02T01:57:39.980Z,62.04
2019-05-02T01:59:45.751Z,61.75
2019-05-02T02:01:57.544Z,64.47
2019-05-02T02:04:02.011Z,62.13
2019-05-02T02:06:10.172Z,62.70
2019-05-02T02:08:17.559Z,62.31
2019-05-02T02:10:24.863Z,62.62
2019-05-02T02:12:32.077Z,63.83
2019-05-02T02:14:39.402Z,63.46
2019-05-02T02:16:46.651Z,64.00
2019-05-02T02:19:04.106Z,62.74
2019-05-02T02:21:25.754Z,63.68
2019-05-02T02:23:49.637Z,63.77
2019-05-02T02:26:06.715Z,64.21
2019-05-02T02:28:12.263Z,64.35
2019-05-02T02:30:24.699Z,63.83
2019-05-02T02:32:28.768Z,63.15
2019-05-02T02:34:36.069Z,64.19
2019-05-02T02:36:43.262Z,64.66
2019-05-02T02:38:50.646Z,64.82
2019-05-02T02:40:57.965Z,64.24
2019-05-02T02:43:29.883Z,64.92
2019-05-02T02:45:59.902Z,65.36
2019-05-02T02:48:07.340Z,64.74
2019-05-02T02:50:14.859Z,64.84
2019-05-02T02:52:22.135Z,64.73
2019-05-02T02:54:29.392Z,65.31
2019-05-02T02:56:40.394Z,65.19
2019-05-02T02:58:47.938Z,65.46
2019-05-02T03:00:54.618Z,64.87
2019-05-02T03:03:03.046Z,65.40
2019-05-02T03:05:10.497Z,65.79
2019-05-02T03:07:25.572Z,66.33
2019-05-02T03:09:28.922Z,66.49
2019-05-02T03:11:44.422Z,65.08
2019-05-02T03:14:07.572Z,64.68
2019-05-02T03:16:15.023Z,64.69
2019-05-02T03:18:26.587Z,64.36
2019-05-02T03:20:39.558Z,65.36
2019-05-02T03:22:43.370Z,66.24
2019-05-02T03:24:50.328Z,66.25
2019-05-02T03:26:59.292Z,67.34
2019-05-02T03:29:06.686Z,67.37
2019-05-02T03:31:25.732Z,67.74
2019-05-02T03:33:24.359Z,67.23
2019-05-02T03:35:42.821Z,68.12
2019-05-02T03:37:44.747Z,67.67
2019-05-02T03:39:57.558Z,68.10
2019-05-02T03:42:02.971Z,68.12
2019-05-02T03:44:12.384Z,67.97
2019-05-02T03:46:20.461Z,67.85
2019-05-02T03:48:27.883Z,69.37
2019-05-02T03:50:35.620Z,67.90
2019-05-02T03:52:46.205Z,68.01
2019-05-02T03:54:52.445Z,68.12
2019-05-02T03:57:00.288Z,68.05
2019-05-02T03:59:07.664Z,67.48
2019-05-02T04:01:15.462Z,67.69
2019-05-02T04:03:23.471Z,67.70
2019-05-02T04:05:33.691Z,66.70
2019-05-02T04:07:42.329Z,67.60
2019-05-02T04:09:50.252Z,67.65
2019-05-02T04:11:57.783Z,67.80
2019-05-02T04:14:14.848Z,68.21
2019-05-02T04:16:17.425Z,68.07
2019-05-02T04:18:25.718Z,66.51
2019-05-02T04:20:33.198Z,66.95
2019-05-02T04:22:48.277Z,67.24
2019-05-02T04:24:54.606Z,66.76
2019-05-02T04:26:58.747Z,67.27
2019-05-02T04:29:06.170Z,66.64
2019-05-02T04:31:13.751Z,67.04
2019-05-02T04:33:21.199Z,66.81
2019-05-02T04:35:34.306Z,66.73
2019-05-02T04:37:41.140Z,66.60
2019-05-02T04:39:48.894Z,66.45
2019-05-02T04:41:58.403Z,66.62
2019-05-02T04:44:04.527Z,66.92
2019-05-02T04:46:22.151Z,66.65
2019-05-02T04:48:21.003Z,66.33
2019-05-02T04:50:29.480Z,66.48
2019-05-02T04:52:38.353Z,66.99
2019-05-02T04:54:48.595Z,66.21
2019-05-02T04:56:55.588Z,66.27
2019-05-02T04:59:13.788Z,65.95
2019-05-02T05:01:12.096Z,66.04
2019-05-02T05:03:21.270Z,65.55
2019-05-02T05:05:31.066Z,65.48
2019-05-02T05:07:41.009Z,64.71
2019-05-02T05:09:50.114Z,64.75
2019-05-02T05:12:00.910Z,65.05
2019-05-02T05:14:05.060Z,65.24
2019-05-02T05:16:15.695Z,64.91
2019-05-02T05:18:21.282Z,65.71
2019-05-02T05:20:28.649Z,64.78
2019-05-02T05:22:44.048Z,65.98
2019-05-02T05:24:53.403Z,65.52
2019-05-02T05:27:00.777Z,65.58
2019-05-02T05:29:08.384Z,66.29
2019-05-02T05:31:23.695Z,65.18
2019-05-02T05:33:24.889Z,65.30
2019-05-02T05:35:32.284Z,65.41
2019-05-02T05:37:43.164Z,65.12
2019-05-02T05:39:52.532Z,64.93
2019-05-02T05:41:57.950Z,64.70
2019-05-02T05:44:07.619Z,64.08
2019-05-02T05:46:14.666Z,63.64
2019-05-02T05:48:22.436Z,63.74
2019-05-02T05:50:32.167Z,62.69
2019-05-02T05:52:42.430Z,62.82
2019-05-02T05:54:47.762Z,62.95
2019-05-02T05:56:57.169Z,63.25
2019-05-02T05:59:04.293Z,62.23
2019-05-02T06:01:11.859Z,61.86
2019-05-02T06:03:19.366Z,60.76
2019-05-02T06:05:27.637Z,61.26
2019-05-02T06:07:41.831Z,61.59
2019-05-02T06:09:44.497Z,61.65
2019-05-02T06:11:55.386Z,61.40
2019-05-02T06:14:01.995Z,61.32
2019-05-02T06:16:10.484Z,61.04
2019-05-02T06:18:18.568Z,60.19
2019-05-02T06:20:30.544Z,59.26
2019-05-02T06:22:35.057Z,59.20
2019-05-02T06:24:46.135Z,58.78
2019-05-02T06:26:51.947Z,58.19
2019-05-02T06:28:59.605Z,58.07
2019-05-02T06:31:08.686Z,58.64
2019-05-02T06:33:16.350Z,58.31
2019-05-02T06:35:23.705Z,58.02
2019-05-02T06:37:31.160Z,58.26
2019-05-02T06:39:38.714Z,57.74
2019-05-02T06:41:46.213Z,58.21
2019-05-02T06:43:53.687Z,57.65
2019-05-02T06:46:14.728Z,57.61
2019-05-02T06:48:17.110Z,57.66
2019-05-02T06:50:21.228Z,56.90
2019-05-02T06:52:32.874Z,56.42
2019-05-02T06:54:38.935Z,56.47
2019-05-02T06:56:48.022Z,56.50
2019-05-02T06:58:55.440Z,55.47
2019-05-02T07:01:03.657Z,55.64
2019-05-02T07:03:11.686Z,55.02
2019-05-02T07:05:19.318Z,55.43
2019-05-02T07:07:31.355Z,56.05
2019-05-02T07:09:41.073Z,55.22
2019-05-02T07:11:56.630Z,55.47
2019-05-02T07:13:54.729Z,55.62
2019-05-02T07:16:16.170Z,56.49
2019-05-02T07:18:20.560Z,56.87
2019-05-02T07:20:28.078Z,57.10
2019-05-02T07:22:38.810Z,57.52
2019-05-02T07:24:44.683Z,57.09
2019-05-02T07:26:56.491Z,56.78
2019-05-02T07:29:01.141Z,56.68
2019-05-02T07:31:12.157Z,56.69
2019-05-02T07:33:17.737Z,55.60
2019-05-02T07:35:25.925Z,56.02
2019-05-02T07:37:33.640Z,55.82
2019-05-02T07:39:42.195Z,54.76
2019-05-02T07:41:49.671Z,54.62
2019-05-02T07:43:57.538Z,55.07
2019-05-02T07:46:05.109Z,55.60
2019-05-02T07:48:17.238Z,55.50
2019-05-02T07:50:21.794Z,54.80
2019-05-02T07:52:33.677Z,54.89
2019-05-02T07:54:38.168Z,55.05
2019-05-02T07:56:48.624Z,54.21
2019-05-02T07:58:54.993Z,53.69
2019-05-02T08:01:02.470Z,53.19
2019-05-02T08:03:09.859Z,52.93
2019-05-02T08:05:21.835Z,51.88
2019-05-02T08:07:34.344Z,50.90
2019-05-02T08:09:39.334Z,51.82
2019-05-02T08:11:47.244Z,51.46
2019-05-02T08:13:55.812Z,51.00
2019-05-02T08:16:03.645Z,52.11
2019-05-02T08:18:11.039Z,52.41
2019-05-02T08:20:19.551Z,51.99
2019-05-02T08:22:27.790Z,52.09
2019-05-02T08:24:37.870Z,51.96
2019-05-02T08:26:58.235Z,51.90
2019-05-02T08:29:07.746Z,51.40
2019-05-02T08:31:19.028Z,51.03
2019-05-02T08:33:29.386Z,51.21
2019-05-02T08:35:34.050Z,51.33
2019-05-02T08:37:43.042Z,51.38
2019-05-02T08:39:50.899Z,51.24
2019-05-02T08:41:59.451Z,51.29
2019-05-02T08:44:07.385Z,51.82
2019-05-02T08:46:15.952Z,51.63
2019-05-02T08:48:23.997Z,52.14
2019-05-02T08:50:33.283Z,52.07
2019-05-02T08:52:42.358Z,52.20
2019-05-02T08:54:50.254Z,52.60
2019-05-02T08:56:59.205Z,52.82
2019-05-02T08:59:07.144Z,52.70
2019-05-02T09:01:15.491Z,51.63
2019-05-02T09:03:23.921Z,52.23
2019-05-02T09:05:31.351Z,53.52
2019-05-02T09:07:40.083Z,52.53
2019-05-02T09:09:49.507Z,52.02
2019-05-02T09:12:09.075Z,51.60
2019-05-02T09:14:06.394Z,51.86
2019-05-02T09:16:14.052Z,52.28
2019-05-02T09:18:22.948Z,52.75
2019-05-02T09:20:31.940Z,52.23
2019-05-02T09:22:41.725Z,50.95
2019-05-02T09:24:48.800Z,51.57
2019-05-02T09:26:56.309Z,51.64
2019-05-02T09:29:05.394Z,51.56
2019-05-02T09:31:16.625Z,50.35
2019-05-02T09:33:23.918Z,50.93
2019-05-02T09:35:32.858Z,50.38
2019-05-02T09:37:41.908Z,50.42
2019-05-02T09:39:49.510Z,50.80
2019-05-02T09:41:57.035Z,50.94
2019-05-02T09:44:04.400Z,51.01
2019-05-02T09:46:12.915Z,51.71
2019-05-02T09:48:24.815Z,50.80
2019-05-02T09:50:32.174Z,50.32
2019-05-02T09:52:41.672Z,50.04
2019-05-02T09:54:48.850Z,49.65
2019-05-02T09:56:56.348Z,49.35
2019-05-02T09:59:23.342Z,49.43
2019-05-02T10:01:22.725Z,48.23
2019-05-02T10:03:31.964Z,48.69
2019-05-02T10:05:39.963Z,48.35
2019-05-02T10:07:48.708Z,48.75
2019-05-02T10:09:57.665Z,49.14
2019-05-02T10:12:05.278Z,49.76
2019-05-02T10:14:14.343Z,48.91
2019-05-02T10:16:23.495Z,49.37
2019-05-02T10:18:32.980Z,48.95
2019-05-02T10:20:41.904Z,49.09
2019-05-02T10:22:49.593Z,49.35
2019-05-02T10:24:57.013Z,48.86
2019-05-02T10:27:08.567Z,49.44
2019-05-02T10:29:14.311Z,49.41
2019-05-02T10:31:21.997Z,49.11
2019-05-02T10:33:33.727Z,49.19
2019-05-02T10:35:43.331Z,49.35
2019-05-02T10:37:53.856Z,49.20
2019-05-02T10:40:03.033Z,48.22
2019-05-02T10:42:12.379Z,48.29
2019-05-02T10:44:19.471Z,48.30
2019-05-02T10:46:37.697Z,48.48
2019-05-02T10:48:52.528Z,46.86
2019-05-02T10:51:18.456Z,47.52
2019-05-02T10:53:25.874Z,47.56
2019-05-02T10:55:33.367Z,47.83
2019-05-02T10:57:42.069Z,46.67
2019-05-02T10:59:49.593Z,45.62
2019-05-02T11:02:14.713Z,45.71
2019-05-02T11:04:27.433Z,45.86
2019-05-02T11:06:32.448Z,46.77
2019-05-02T11:08:42.208Z,47.19
2019-05-02T11:10:49.237Z,45.75
2019-05-02T11:13:03.137Z,46.11
2019-05-02T11:15:41.922Z,47.02
2019-05-02T11:17:50.014Z,46.08
2019-05-02T11:20:01.878Z,45.94
2019-05-02T11:22:09.477Z,46.00
2019-05-02T11:24:16.913Z,46.08
2019-05-02T11:26:25.277Z,45.49
2019-05-02T11:28:32.908Z,46.10
2019-05-02T11:30:41.962Z,45.78
2019-05-02T11:32:52.102Z,46.41
2019-05-02T11:34:59.654Z,46.80
2019-05-02T11:37:07.430Z,46.25
2019-05-02T11:39:24.260Z,46.70
2019-05-02T11:41:24.131Z,46.44
2019-05-02T11:43:32.630Z,45.97
2019-05-02T11:45:40.249Z,46.43
2019-05-02T11:47:47.661Z,45.17
2019-05-02T11:49:56.015Z,44.52
2019-05-02T11:52:04.673Z,44.52
2019-05-02T11:54:13.037Z,43.81
2019-05-02T11:56:22.345Z,44.65
2019-05-02T11:58:29.914Z,44.14
2019-05-02T12:00:39.721Z,43.11
2019-05-02T12:03:05.358Z,43.70
2019-05-02T12:05:14.731Z,43.79
2019-05-02T12:07:23.128Z,44.00
2019-05-02T12:09:31.958Z,43.90
2019-05-02T12:11:39.496Z,44.37
2019-05-02T12:13:51.420Z,44.51
2019-05-02T12:15:56.427Z,43.64
2019-05-02T12:18:03.905Z,43.79
2019-05-02T12:20:11.944Z,44.38
2019-05-02T12:22:19.550Z,44.11
2019-05-02T12:24:27.042Z,43.85
2019-05-02T12:26:34.559Z,44.97
2019-05-02T12:28:42.919Z,45.15
2019-05-02T12:30:51.908Z,45.51
2019-05-02T12:32:59.482Z,45.75
2019-05-02T12:35:07.509Z,45.21
2019-05-02T12:37:15.017Z,45.87
2019-05-02T12:39:22.621Z,45.92
2019-05-02T12:41:30.054Z,45.68
2019-05-02T12:43:37.382Z,46.63
2019-05-02T12:45:44.768Z,46.92
2019-05-02T12:47:52.334Z,46.61
2019-05-02T12:49:59.968Z,46.71
2019-05-02T12:52:07.791Z,46.18
2019-05-02T12:54:15.162Z,46.39
2019-05-02T12:56:23.020Z,46.12
2019-05-02T12:58:32.555Z,46.91
2019-05-02T13:00:40.023Z,47.00
2019-05-02T13:02:53.889Z,47.44
2019-05-02T13:05:02.418Z,47.53
2019-05-02T13:07:12.630Z,46.28
2019-05-02T13:09:19.925Z,45.18
2019-05-02T13:11:54.581Z,45.25
2019-05-02T13:14:02.278Z,45.41
2019-05-02T13:16:12.205Z,45.81
2019-05-02T13:18:25.377Z,44.85
2019-05-02T13:20:33.611Z,44.14
2019-05-02T13:22:57.305Z,44.66
2019-05-02T13:25:10.499Z,43.87
2019-05-02T13:27:18.790Z,44.57
2019-05-02T13:29:26.230Z,44.43
2019-05-02T13:31:39.963Z,44.72
2019-05-02T13:34:13.287Z,45.19
2019-05-02T13:36:43.141Z,44.16
2019-05-02T13:38:51.925Z,44.66
2019-05-02T13:40:59.858Z,44.62
2019-05-02T13:43:07.512Z,44.62
2019-05-02T13:45:33.906Z,44.98
2019-05-02T13:47:42.604Z,44.90
2019-05-02T13:49:54.879Z,45.19
2019-05-02T13:52:02.339Z,45.46
2019-05-02T13:54:09.380Z,45.48
2019-05-02T13:56:47.860Z,45.68
2019-05-02T13:58:55.183Z,46.07
2019-05-02T14:01:03.431Z,45.22
2019-05-02T14:03:11.911Z,46.03
2019-05-02T14:05:22.231Z,46.00
2019-05-02T14:07:32.452Z,45.65
2019-05-02T14:09:52.713Z,46.63
2019-05-02T14:12:17.405Z,46.25
2019-05-02T14:14:24.861Z,46.05
2019-05-02T14:16:32.264Z,46.59
2019-05-02T14:18:42.011Z,46.66
2019-05-02T14:20:48.875Z,46.51
2019-05-02T14:22:56.259Z,46.68
2019-05-02T14:25:03.763Z,46.36
2019-05-02T14:27:15.556Z,46.65
2019-05-02T14:29:21.737Z,46.85
2019-05-02T14:31:29.267Z,46.47
2019-05-02T14:33:38.233Z,46.66
2019-05-02T14:35:45.699Z,46.60
2019-05-02T14:38:27.588Z,46.94
2019-05-02T14:40:36.402Z,47.05
2019-05-02T14:42:44.135Z,47.28
2019-05-02T14:45:07.165Z,47.45
2019-05-02T14:47:02.118Z,47.81
2019-05-02T14:49:12.033Z,47.47
2019-05-02T14:51:22.879Z,47.81
2019-05-02T14:53:31.907Z,47.97
2019-05-02T14:55:42.110Z,47.77
2019-05-02T14:57:49.914Z,47.94
2019-05-02T14:59:59.518Z,46.80
2019-05-02T15:02:12.959Z,47.50
2019-05-02T15:04:22.668Z,47.27
2019-05-02T15:06:33.332Z,47.14
2019-05-02T15:08:43.493Z,47.48
2019-05-02T15:10:52.474Z,47.80
2019-05-02T15:12:59.778Z,48.18
2019-05-02T15:15:12.320Z,48.29
2019-05-02T15:17:19.858Z,48.13
2019-05-02T15:19:27.531Z,48.19
2019-05-02T15:21:46.995Z,48.23
2019-05-02T15:23:54.198Z,47.88
2019-05-02T15:26:02.687Z,47.76
2019-05-02T15:28:13.120Z,47.76
2019-05-02T15:30:20.873Z,48.51
2019-05-02T15:32:42.848Z,48.66
2019-05-02T15:35:17.798Z,48.55
2019-05-02T15:37:25.712Z,48.74
2019-05-02T15:41:44.723Z,49.18
2019-05-02T15:43:52.342Z,48.76
2019-05-02T15:46:01.603Z,49.18
2019-05-02T15:48:09.593Z,49.55
2019-05-02T15:50:22.029Z,49.43
2019-05-02T15:52:32.632Z,49.41
2019-05-02T15:54:40.121Z,49.27
2019-05-02T15:56:59.922Z,49.09
2019-05-02T15:59:03.385Z,49.42
2019-05-02T16:01:27.053Z,49.54
2019-05-02T16:03:46.377Z,50.36
2019-05-02T16:05:54.184Z,49.63
2019-05-02T16:08:08.363Z,49.69
2019-05-02T16:10:14.174Z,49.91
2019-05-02T16:12:22.248Z,49.69
2019-05-02T16:14:34.115Z,49.82
2019-05-02T16:16:41.855Z,50.24
2019-05-02T16:18:52.578Z,50.19
2019-05-02T16:21:07.890Z,50.44
2019-05-02T16:23:18.968Z,50.63
2019-05-02T16:25:26.036Z,50.42
2019-05-02T16:27:49.667Z,50.42
2019-05-02T16:29:58.337Z,50.49
2019-05-02T16:32:35.065Z,50.79
2019-05-02T16:35:12.426Z,50.62
2019-05-02T16:37:16.703Z,50.74
2019-05-02T16:39:23.519Z,50.94
2019-05-02T16:41:32.508Z,51.11
2019-05-02T16:43:41.857Z,51.05
2019-05-02T16:45:49.463Z,51.44
2019-05-02T16:47:58.930Z,51.31
2019-05-02T16:50:07.879Z,51.82
2019-05-02T16:52:16.152Z,51.83
2019-05-02T16:54:23.843Z,51.35
2019-05-02T16:56:31.694Z,50.64
2019-05-02T16:58:43.378Z,51.51
2019-05-02T17:00:48.517Z,50.46
2019-05-02T17:02:56.148Z,50.44
2019-05-02T17:05:08.233Z,50.27
2019-05-02T17:07:17.222Z,50.67
2019-05-02T17:09:46.826Z,50.46
2019-05-02T17:11:54.239Z,50.80
2019-05-02T17:14:07.048Z,50.60
2019-05-02T17:16:15.859Z,50.60
2019-05-02T17:18:22.853Z,50.75
2019-05-02T17:20:31.829Z,50.31
2019-05-02T17:22:39.133Z,50.76
2019-05-02T17:24:46.601Z,50.68
2019-05-02T17:26:53.902Z,50.32
2019-05-02T17:29:02.508Z,50.80
2019-05-02T17:31:10.738Z,50.63
2019-05-02T17:33:19.262Z,51.08
2019-05-02T17:35:26.959Z,50.67
2019-05-02T17:37:34.350Z,50.18
2019-05-02T17:39:45.901Z,50.50
2019-05-02T17:41:52.390Z,50.15
2019-05-02T17:43:59.967Z,50.05
2019-05-02T17:46:12.429Z,49.96
2019-05-02T17:48:17.851Z,49.59
2019-05-02T17:50:43.697Z,49.43
2019-05-02T17:52:56.116Z,49.65
2019-05-02T17:55:05.087Z,49.96
2019-05-02T17:57:12.509Z,50.32
2019-05-02T17:59:19.954Z,50.59
2019-05-02T18:01:35.050Z,50.17
2019-05-02T18:03:42.574Z,50.58
2019-05-02T18:05:50.159Z,50.98
2019-05-02T18:07:57.572Z,51.36
2019-05-02T18:10:13.543Z,51.34
2019-05-02T18:12:16.307Z,51.30
2019-05-02T18:14:24.164Z,51.05
2019-05-02T18:16:32.409Z,51.19
2019-05-02T18:18:43.741Z,51.52
2019-05-02T18:20:49.253Z,51.49
2019-05-02T18:22:57.043Z,51.58
2019-05-02T18:25:04.769Z,51.79
2019-05-02T18:27:12.850Z,51.86
2019-05-02T18:29:20.677Z,51.79
2019-05-02T18:31:29.138Z,52.15
2019-05-02T18:33:41.266Z,52.49
2019-05-02T18:35:47.030Z,52.42
2019-05-02T18:37:54.683Z,52.29
2019-05-02T18:40:03.074Z,52.43
2019-05-02T18:42:11.939Z,52.62
2019-05-02T18:44:19.698Z,52.54
2019-05-02T18:46:27.235Z,52.62
2019-05-02T18:48:36.618Z,52.89
2019-05-02T18:50:47.695Z,53.02
2019-05-02T18:52:55.060Z,53.07
2019-05-02T18:55:02.690Z,52.96
2019-05-02T18:57:11.927Z,52.96
2019-05-02T18:59:21.623Z,53.22
2019-05-02T19:01:29.095Z,53.38
2019-05-02T19:03:37.699Z,53.57
2019-05-02T19:05:46.630Z,53.29
2019-05-02T19:07:56.418Z,53.41
2019-05-02T19:10:07.020Z,53.51
2019-05-02T19:12:21.433Z,53.50
2019-05-02T19:14:25.936Z,54.20
2019-05-02T19:16:31.822Z,53.67
2019-05-02T19:18:39.799Z,53.76
2019-05-02T19:21:05.533Z,53.91
2019-05-02T19:23:13.154Z,54.34
2019-05-02T19:25:22.796Z,54.68
2019-05-02T19:27:47.963Z,54.77
2019-05-02T19:29:55.605Z,54.88
2019-05-02T19:32:04.600Z,54.72
2019-05-02T19:34:16.757Z,54.73
2019-05-02T19:36:24.891Z,55.21
2019-05-02T19:38:32.417Z,55.31
2019-05-02T19:40:39.832Z,55.21
2019-05-02T19:42:47.420Z,55.55
2019-05-02T19:44:54.914Z,55.22
2019-05-02T19:47:02.945Z,55.60
2019-05-02T19:49:12.380Z,56.45
2019-05-02T19:51:22.451Z,56.21
2019-05-02T19:53:32.296Z,56.18
2019-05-02T19:55:42.714Z,55.88
2019-05-02T19:57:49.717Z,56.52
2019-05-02T20:00:01.848Z,56.73
2019-05-02T20:02:07.372Z,56.27
2019-05-02T20:04:18.167Z,56.54
2019-05-02T20:06:26.084Z,56.69
2019-05-02T20:08:34.750Z,56.48
2019-05-02T20:10:42.762Z,56.66
2019-05-02T20:12:50.915Z,57.13
2019-05-02T20:14:59.769Z,56.81
2019-05-02T20:17:08.525Z,56.74
2019-05-02T20:19:17.198Z,56.99
2019-05-02T20:21:40.136Z,57.10
2019-05-02T20:23:47.944Z,57.31
2019-05-02T20:25:55.630Z,57.43
2019-05-02T20:28:03.208Z,57.63
2019-05-02T20:30:12.014Z,57.16
2019-05-02T20:32:21.690Z,57.98
2019-05-02T20:34:28.939Z,57.23
2019-05-02T20:36:36.401Z,57.35
2019-05-02T20:38:44.159Z,57.79
2019-05-02T20:40:52.274Z,57.29
2019-05-02T20:43:00.010Z,58.30
2019-05-02T20:45:07.577Z,57.76
2019-05-02T20:47:21.854Z,57.28
2019-05-02T20:49:29.286Z,57.95
2019-05-02T20:51:36.739Z,57.82
2019-05-02T20:53:44.130Z,57.81
2019-05-02T20:55:52.352Z,58.34
2019-05-02T20:58:02.034Z,58.18
2019-05-02T21:00:19.992Z,57.71
2019-05-02T21:02:27.806Z,57.78
2019-05-02T21:04:35.441Z,57.94
2019-05-02T21:06:52.712Z,58.28
2019-05-02T21:09:15.740Z,58.76
2019-05-02T21:11:24.388Z,58.00
2019-05-02T21:13:32.754Z,58.88
2019-05-02T21:15:40.534Z,59.08
2019-05-02T21:17:48.038Z,58.31
2019-05-02T21:19:55.524Z,59.02
2019-05-02T21:22:09.974Z,59.39
2019-05-02T21:24:17.497Z,59.16
2019-05-02T21:26:24.922Z,59.51
2019-05-02T21:28:32.302Z,59.01
2019-05-02T21:30:41.644Z,59.86
2019-05-02T21:32:49.285Z,59.79
2019-05-02T21:34:56.988Z,59.68
2019-05-02T21:37:04.502Z,59.13
2019-05-02T21:39:14.425Z,60.45
2019-05-02T21:41:22.321Z,60.02
2019-05-02T21:44:22.339Z,60.22
2019-05-02T21:46:31.796Z,60.11
2019-05-02T21:48:39.259Z,60.13
2019-05-02T21:50:52.447Z,60.07
2019-05-02T21:53:18.581Z,60.57
2019-05-02T21:55:47.764Z,60.27
2019-05-02T21:57:55.302Z,60.04
2019-05-02T22:00:03.022Z,59.86
2019-05-02T22:02:12.656Z,60.29
2019-05-02T22:04:22.387Z,60.04
2019-05-02T22:06:32.230Z,59.65
2019-05-02T22:12:04.403Z,60.01
2019-05-02T22:14:15.884Z,60.03
2019-05-02T22:16:23.543Z,60.50
2019-05-02T22:18:32.119Z,60.88
2019-05-02T22:20:39.832Z,60.61
2019-05-02T22:22:48.152Z,61.15
2019-05-02T22:25:07.597Z,61.39
2019-05-02T22:27:15.195Z,61.83
2019-05-02T22:29:32.488Z,61.57
2019-05-02T22:31:42.864Z,61.15
2019-05-02T22:33:49.803Z,60.89
2019-05-02T22:35:57.292Z,61.34
2019-05-02T22:38:13.549Z,60.83
2019-05-02T22:40:21.831Z,61.22
2019-05-02T22:42:29.499Z,61.35
2019-05-02T22:44:37.084Z,61.02
2019-05-02T22:46:45.365Z,61.44
2019-05-02T22:48:52.745Z,61.38
2019-05-02T22:51:00.583Z,61.59
2019-05-02T22:53:08.014Z,62.18
2019-05-02T22:55:16.261Z,61.47
2019-05-02T22:57:23.568Z,61.50
2019-05-02T22:59:31.739Z,61.63
2019-05-02T23:01:39.256Z,62.16
2019-05-02T23:03:46.571Z,62.45
2019-05-02T23:05:53.944Z,62.86
2019-05-02T23:08:02.287Z,63.11
2019-05-02T23:10:12.544Z,62.04
2019-05-02T23:12:19.715Z,62.22
2019-05-02T23:14:27.202Z,62.74
2019-05-02T23:16:34.774Z,62.05
2019-05-02T23:18:42.616Z,62.26
2019-05-02T23:20:50.119Z,63.24
2019-05-02T23:22:57.477Z,62.71
2019-05-02T23:25:26.754Z,63.56
2019-05-02T23:27:42.444Z,62.97
2019-05-02T23:29:51.914Z,63.54
2019-05-02T23:31:59.020Z,63.67
2019-05-02T23:34:06.414Z,63.51
2019-05-02T23:36:13.774Z,63.62
2019-05-02T23:38:21.757Z,63.23
2019-05-02T23:40:29.219Z,62.54
2019-05-02T23:42:36.594Z,62.12
2019-05-02T23:44:44.004Z,62.53
2019-05-02T23:46:51.570Z,62.30
2019-05-02T23:48:59.092Z,62.58
2019-05-02T23:51:06.589Z,63.39
2019-05-02T23:53:13.891Z,63.48
2019-05-02T23:55:22.828Z,63.71
2019-05-02T23:57:32.000Z,63.24
2019-05-02T23:59:39.178Z,63.57
